createdAt,value
2018-01-18T00:00:28.082Z,0.0
2018-01-18T00:15:25.478Z,0.0
2018-01-18T00:30:25.385Z,0.0
2018-01-18T00:45:25.482Z,0.0
2018-01-18T01:00:28.023Z,0.0
2018-01-18T01:15:25.500Z,0.0
2018-01-18T01:30:25.168Z,0.0
2018-01-18T01:45:25.505Z,0.0
2018-01-18T02:00:27.955Z,0.0
2018-01-18T02:15:25.293Z,0.0
2018-01-18T02:30:25.528Z,0.0
2018-01-18T02:45:26.556Z,0.0
2018-01-18T03:00:28.122Z,0.0
2018-01-18T03:15:25.537Z,0.0
2018-01-18T03:30:25.545Z,0.0
2018-01-18T03:45:30.436Z,0.0
2018-01-18T04:00:27.987Z,0.0
2018-01-18T04:15:25.531Z,0.0
2018-01-18T04:30:25.566Z,0.0
2018-01-18T04:45:25.570Z,0.0
2018-01-18T05:00:28.079Z,0.0
2018-01-18T05:15:30.944Z,0.0
2018-01-18T05:30:25.482Z,0.0
2018-01-18T05:45:25.487Z,0.0
2018-01-18T06:00:28.057Z,0.0
2018-01-18T06:15:25.593Z,0.0
2018-01-18T06:30:25.506Z,0.0
2018-01-18T06:34:25.265Z,0.1
2018-01-18T06:36:25.523Z,0.2
2018-01-18T06:37:25.234Z,0.3
2018-01-18T06:39:25.236Z,0.4
2018-01-18T06:40:25.279Z,0.5
2018-01-18T06:42:25.438Z,0.6
2018-01-18T06:43:25.241Z,0.7
2018-01-18T06:44:25.264Z,0.9
2018-01-18T06:45:25.235Z,1.0
2018-01-18T06:46:25.234Z,1.2
2018-01-18T06:47:25.448Z,1.4
2018-01-18T06:48:25.234Z,1.6
2018-01-18T06:49:25.239Z,1.8
2018-01-18T06:50:25.206Z,2.0
2018-01-18T06:51:25.261Z,2.2
2018-01-18T06:52:25.445Z,2.5
2018-01-18T06:53:25.238Z,2.8
2018-01-18T06:54:25.209Z,3.2
2018-01-18T06:55:25.242Z,3.7
2018-01-18T06:56:25.276Z,4.2
2018-01-18T06:57:30.449Z,4.9
2018-01-18T06:58:25.238Z,5.6
2018-01-18T06:59:25.239Z,6.5
2018-01-18T07:00:25.242Z,7.5
2018-01-18T07:01:25.241Z,8.7
2018-01-18T07:02:25.477Z,10.2
2018-01-18T07:03:25.239Z,11.7
2018-01-18T07:04:25.241Z,13.3
2018-01-18T07:05:25.242Z,15.1
2018-01-18T07:06:25.239Z,17.0
2018-01-18T07:07:25.483Z,19.2
2018-01-18T07:08:25.242Z,21.6
2018-01-18T07:09:25.240Z,24.2
2018-01-18T07:10:25.243Z,27.1
2018-01-18T07:11:25.258Z,30.3
2018-01-18T07:12:25.524Z,34.0
2018-01-18T07:13:25.242Z,38.5
2018-01-18T07:14:25.240Z,43.1
2018-01-18T07:15:25.238Z,48.6
2018-01-18T07:16:25.238Z,55.4
2018-01-18T07:17:25.483Z,62.9
2018-01-18T07:18:25.244Z,71.3
2018-01-18T07:19:25.242Z,80.1
2018-01-18T07:20:25.241Z,89.7
2018-01-18T07:21:25.240Z,100.7
2018-01-18T07:22:25.477Z,113.0
2018-01-18T07:23:25.241Z,126.3
2018-01-18T07:24:25.244Z,142.6
2018-01-18T07:25:25.237Z,159.3
2018-01-18T07:26:25.238Z,177.1
2018-01-18T07:27:25.475Z,197.6
2018-01-18T07:28:25.244Z,219.1
2018-01-18T07:29:25.243Z,242.8
2018-01-18T07:30:25.247Z,267.3
2018-01-18T07:31:25.242Z,292.3
2018-01-18T07:32:25.472Z,322.1
2018-01-18T07:33:25.240Z,355.4
2018-01-18T07:34:25.488Z,394.1
2018-01-18T07:35:25.241Z,434.2
2018-01-18T07:36:25.242Z,476.7
2018-01-18T07:37:25.482Z,522.1
2018-01-18T07:38:25.248Z,566.7
2018-01-18T07:39:25.249Z,612.2
2018-01-18T07:40:25.244Z,660.9
2018-01-18T07:41:25.248Z,712.3
2018-01-18T07:42:25.552Z,764.3
2018-01-18T07:43:25.253Z,817.7
2018-01-18T07:44:25.253Z,869.5
2018-01-18T07:45:25.249Z,932.7
2018-01-18T07:46:25.249Z,1001.0
2018-01-18T07:47:25.490Z,1066.5
2018-01-18T07:48:25.253Z,1123.6
2018-01-18T07:49:25.253Z,1175.5
2018-01-18T07:50:25.250Z,1228.0
2018-01-18T07:51:25.249Z,1278.5
2018-01-18T07:52:25.494Z,1333.8
2018-01-18T07:53:25.251Z,1392.9
2018-01-18T07:54:25.255Z,1459.1
2018-01-18T07:55:25.222Z,1524.7
2018-01-18T07:56:25.251Z,1586.7
2018-01-18T07:57:25.497Z,1644.5
2018-01-18T07:58:25.254Z,1701.0
2018-01-18T07:59:25.252Z,1757.7
2018-01-18T08:00:25.252Z,1822.9
2018-01-18T08:01:25.256Z,1888.9
2018-01-18T08:02:25.514Z,1959.9
2018-01-18T08:03:25.256Z,2040.1
2018-01-18T08:04:25.228Z,2117.9
2018-01-18T08:05:25.257Z,2198.8
2018-01-18T08:06:25.254Z,2283.5
2018-01-18T08:07:25.497Z,2366.0
2018-01-18T08:08:25.261Z,2456.5
2018-01-18T08:09:25.259Z,2543.8
2018-01-18T08:10:25.257Z,2626.9
2018-01-18T08:11:25.257Z,2724.3
2018-01-18T08:12:25.527Z,2825.5
2018-01-18T08:13:25.255Z,2924.7
2018-01-18T08:14:25.262Z,3027.7
2018-01-18T08:15:25.258Z,3112.3
2018-01-18T08:16:25.258Z,3189.4
2018-01-18T08:17:25.499Z,3255.8
2018-01-18T08:18:25.260Z,3322.7
2018-01-18T08:19:25.263Z,3380.1
2018-01-18T08:20:25.233Z,3448.9
2018-01-18T08:21:25.266Z,3540.0
2018-01-18T08:22:25.511Z,3659.1
2018-01-18T08:23:25.263Z,3773.5
2018-01-18T08:24:25.303Z,3883.1
2018-01-18T08:25:25.264Z,4009.9
2018-01-18T08:26:25.259Z,4132.1
2018-01-18T08:27:25.495Z,4221.5
2018-01-18T08:28:25.267Z,4327.9
2018-01-18T08:29:25.260Z,4440.0
2018-01-18T08:30:25.259Z,4552.4
2018-01-18T08:31:25.262Z,4667.8
2018-01-18T08:32:25.508Z,4808.6
2018-01-18T08:33:25.262Z,4958.3
2018-01-18T08:34:25.262Z,5118.7
2018-01-18T08:35:25.260Z,5222.9
2018-01-18T08:36:25.260Z,5293.8
2018-01-18T08:37:25.574Z,5311.1
2018-01-18T08:39:25.257Z,5311.8
2018-01-18T08:40:25.257Z,5299.1
2018-01-18T08:41:25.292Z,5274.4
2018-01-18T08:42:25.577Z,5309.2
2018-01-18T08:43:25.254Z,5364.9
2018-01-18T08:44:25.256Z,5434.9
2018-01-18T08:45:25.256Z,5525.1
2018-01-18T08:46:25.255Z,5640.3
2018-01-18T08:47:25.489Z,5749.7
2018-01-18T08:48:25.255Z,5856.7
2018-01-18T08:49:25.254Z,5968.8
2018-01-18T08:50:25.254Z,6118.9
2018-01-18T08:51:25.227Z,6278.8
2018-01-18T08:52:25.563Z,6435.1
2018-01-18T08:53:25.249Z,6601.5
2018-01-18T08:54:25.251Z,6730.9
2018-01-18T08:55:25.251Z,6878.7
2018-01-18T08:56:26.276Z,6989.0
2018-01-18T08:57:25.511Z,7095.0
2018-01-18T08:58:25.251Z,7182.6
2018-01-18T08:59:25.250Z,7274.4
2018-01-18T09:00:25.247Z,7350.1
2018-01-18T09:01:25.218Z,7392.1
2018-01-18T09:02:40.295Z,7443.0
2018-01-18T09:03:40.228Z,7454.7
2018-01-18T09:04:40.226Z,7454.5
2018-01-18T09:05:40.223Z,7460.0
2018-01-18T09:06:40.256Z,7428.6
2018-01-18T09:07:40.298Z,7440.1
2018-01-18T09:08:40.226Z,7468.9
2018-01-18T09:09:40.223Z,7539.7
2018-01-18T09:10:40.253Z,7596.3
2018-01-18T09:11:40.230Z,7658.0
2018-01-18T09:12:40.281Z,7698.4
2018-01-18T09:13:40.269Z,7725.8
2018-01-18T09:14:40.221Z,7713.8
2018-01-18T09:15:40.221Z,7712.3
2018-01-18T09:16:40.257Z,7756.4
2018-01-18T09:17:40.228Z,7803.1
2018-01-18T09:18:40.334Z,7865.3
2018-01-18T09:19:40.228Z,7931.3
2018-01-18T09:20:40.222Z,8052.9
2018-01-18T09:21:40.252Z,8208.9
2018-01-18T09:22:40.259Z,8353.7
2018-01-18T09:23:40.260Z,8484.5
2018-01-18T09:24:40.256Z,8599.2
2018-01-18T09:25:40.258Z,8681.7
2018-01-18T09:26:40.226Z,8825.7
2018-01-18T09:27:41.348Z,8974.5
2018-01-18T09:28:40.269Z,9127.1
2018-01-18T09:29:40.221Z,9307.3
2018-01-18T09:30:40.227Z,9460.6
2018-01-18T09:31:40.224Z,9614.0
2018-01-18T09:32:40.262Z,9762.7
2018-01-18T09:33:40.270Z,9906.5
2018-01-18T09:34:40.226Z,10054.2
2018-01-18T15:50:25.643Z,297.0
2018-01-18T15:51:25.397Z,291.5
2018-01-18T15:52:25.380Z,279.0
2018-01-18T15:53:25.358Z,268.0
2018-01-18T15:54:25.358Z,254.4
2018-01-18T15:55:25.571Z,240.2
2018-01-18T15:56:25.393Z,226.0
2018-01-18T15:57:25.357Z,213.4
2018-01-18T15:58:25.359Z,202.1
2018-01-18T15:59:25.326Z,191.8
2018-01-18T16:00:28.513Z,182.5
2018-01-18T16:01:25.381Z,173.5
2018-01-18T16:02:25.381Z,164.8
2018-01-18T16:03:25.357Z,156.9
2018-01-18T16:04:25.353Z,149.4
2018-01-18T16:05:25.564Z,132.1
2018-01-18T16:06:25.394Z,115.3
2018-01-18T16:07:25.356Z,100.3
2018-01-18T16:08:25.353Z,86.3
2018-01-18T16:09:25.355Z,74.5
2018-01-18T16:10:25.559Z,64.5
2018-01-18T16:11:25.386Z,56.1
2018-01-18T16:12:25.357Z,48.7
2018-01-18T16:13:25.325Z,42.0
2018-01-18T16:14:25.354Z,36.0
2018-01-18T16:15:25.560Z,30.6
2018-01-18T16:16:25.388Z,26.0
2018-01-18T16:17:25.354Z,22.3
2018-01-18T16:18:30.359Z,19.1
2018-01-18T16:19:25.321Z,16.3
2018-01-18T16:20:25.558Z,14.1
2018-01-18T16:21:25.384Z,12.0
2018-01-18T16:22:25.364Z,10.3
2018-01-18T16:23:25.350Z,8.7
2018-01-18T16:24:25.350Z,7.4
2018-01-18T16:25:25.561Z,6.3
2018-01-18T16:26:25.391Z,5.3
2018-01-18T16:27:25.350Z,4.5
2018-01-18T16:28:25.349Z,3.7
2018-01-18T16:29:25.352Z,3.2
2018-01-18T16:30:25.562Z,2.7
2018-01-18T16:31:25.382Z,2.4
2018-01-18T16:32:25.356Z,2.1
2018-01-18T16:33:25.356Z,1.9
2018-01-18T16:34:25.350Z,1.7
2018-01-18T16:35:25.558Z,1.5
2018-01-18T16:36:25.378Z,1.3
2018-01-18T16:37:25.352Z,1.1
2018-01-18T16:38:25.354Z,1.0
2018-01-18T16:39:25.388Z,0.9
2018-01-18T16:40:25.570Z,0.7
2018-01-18T16:42:25.352Z,0.6
2018-01-18T16:43:25.353Z,0.5
2018-01-18T16:45:26.661Z,0.4
2018-01-18T16:46:25.353Z,0.3
2018-01-18T16:48:25.352Z,0.2
2018-01-18T16:49:25.355Z,0.1
